sensor_id;sensor_type;location;lat;lon;timestamp;P1;durP1;ratioP1;P2;durP2;ratioP2
71395;SDS011;59888;55.814;37.132;2023-04-24T00:01:50;19.98;;;6.65;;
71395;SDS011;59888;55.814;37.132;2023-04-24T00:04:16;10.50;;;5.55;;
71395;SDS011;59888;55.814;37.132;2023-04-24T00:06:42;13.25;;;5.90;;
71395;SDS011;59888;55.814;37.132;2023-04-24T00:09:09;12.45;;;5.47;;
71395;SDS011;59888;55.814;37.132;2023-04-24T00:11:35;12.98;;;5.90;;
71395;SDS011;59888;55.814;37.132;2023-04-24T00:14:02;11.30;;;5.25;;
71395;SDS011;59888;55.814;37.132;2023-04-24T00:16:28;11.45;;;4.50;;
71395;SDS011;59888;55.814;37.132;2023-04-24T00:18:54;12.30;;;5.32;;
71395;SDS011;59888;55.814;37.132;2023-04-24T00:21:20;11.88;;;5.03;;
71395;SDS011;59888;55.814;37.132;2023-04-24T00:23:47;8.60;;;4.63;;
71395;SDS011;59888;55.814;37.132;2023-04-24T00:26:13;8.15;;;5.05;;
71395;SDS011;59888;55.814;37.132;2023-04-24T00:28:39;8.43;;;4.47;;
71395;SDS011;59888;55.814;37.132;2023-04-24T00:31:05;8.30;;;4.53;;
71395;SDS011;59888;55.814;37.132;2023-04-24T00:33:31;10.73;;;4.65;;
71395;SDS011;59888;55.814;37.132;2023-04-24T00:35:57;7.75;;;4.43;;
71395;SDS011;59888;55.814;37.132;2023-04-24T00:38:23;10.98;;;4.53;;
71395;SDS011;59888;55.814;37.132;2023-04-24T00:40:49;9.43;;;5.07;;
71395;SDS011;59888;55.814;37.132;2023-04-24T00:43:16;8.98;;;4.55;;
71395;SDS011;59888;55.814;37.132;2023-04-24T00:45:42;9.88;;;4.70;;
71395;SDS011;59888;55.814;37.132;2023-04-24T00:48:08;11.15;;;4.63;;
71395;SDS011;59888;55.814;37.132;2023-04-24T00:50:37;7.72;;;4.40;;
71395;SDS011;59888;55.814;37.132;2023-04-24T00:53:04;8.48;;;4.60;;
71395;SDS011;59888;55.814;37.132;2023-04-24T00:55:30;6.80;;;4.45;;
71395;SDS011;59888;55.814;37.132;2023-04-24T00:57:56;8.23;;;5.05;;
71395;SDS011;59888;55.814;37.132;2023-04-24T01:00:22;11.25;;;4.88;;
71395;SDS011;59888;55.814;37.132;2023-04-24T01:02:49;10.80;;;4.93;;
71395;SDS011;59888;55.814;37.132;2023-04-24T01:05:17;8.55;;;4.57;;
71395;SDS011;59888;55.814;37.132;2023-04-24T01:07:44;10.48;;;5.15;;
71395;SDS011;59888;55.814;37.132;2023-04-24T01:10:15;11.32;;;6.22;;
71395;SDS011;59888;55.814;37.132;2023-04-24T01:12:44;12.00;;;5.85;;
71395;SDS011;59888;55.814;37.132;2023-04-24T01:15:11;12.10;;;5.88;;
71395;SDS011;59888;55.814;37.132;2023-04-24T01:17:37;12.15;;;5.90;;
71395;SDS011;59888;55.814;37.132;2023-04-24T01:20:04;10.25;;;5.68;;
71395;SDS011;59888;55.814;37.132;2023-04-24T01:22:34;13.73;;;6.35;;
71395;SDS011;59888;55.814;37.132;2023-04-24T01:25:02;14.90;;;6.53;;
71395;SDS011;59888;55.814;37.132;2023-04-24T01:27:31;10.43;;;5.88;;
71395;SDS011;59888;55.814;37.132;2023-04-24T01:29:57;8.65;;;5.35;;
71395;SDS011;59888;55.814;37.132;2023-04-24T01:32:24;10.85;;;5.88;;
71395;SDS011;59888;55.814;37.132;2023-04-24T01:34:50;13.88;;;6.43;;
71395;SDS011;59888;55.814;37.132;2023-04-24T01:37:17;15.65;;;5.93;;
71395;SDS011;59888;55.814;37.132;2023-04-24T01:39:43;12.18;;;6.72;;
71395;SDS011;59888;55.814;37.132;2023-04-24T01:42:09;10.93;;;5.90;;
71395;SDS011;59888;55.814;37.132;2023-04-24T01:44:35;12.57;;;5.88;;
71395;SDS011;59888;55.814;37.132;2023-04-24T01:47:02;8.93;;;6.28;;
71395;SDS011;59888;55.814;37.132;2023-04-24T01:49:29;11.70;;;6.20;;
71395;SDS011;59888;55.814;37.132;2023-04-24T01:51:55;13.18;;;6.40;;
71395;SDS011;59888;55.814;37.132;2023-04-24T01:54:21;9.95;;;6.30;;
71395;SDS011;59888;55.814;37.132;2023-04-24T01:56:47;13.45;;;6.55;;
71395;SDS011;59888;55.814;37.132;2023-04-24T01:59:13;15.57;;;6.50;;
71395;SDS011;59888;55.814;37.132;2023-04-24T02:01:41;11.25;;;6.65;;
71395;SDS011;59888;55.814;37.132;2023-04-24T02:04:07;10.45;;;6.30;;
71395;SDS011;59888;55.814;37.132;2023-04-24T02:06:34;11.25;;;6.45;;
71395;SDS011;59888;55.814;37.132;2023-04-24T02:09:01;12.50;;;5.97;;
71395;SDS011;59888;55.814;37.132;2023-04-24T02:11:28;12.52;;;6.20;;
71395;SDS011;59888;55.814;37.132;2023-04-24T02:13:54;14.75;;;7.22;;
71395;SDS011;59888;55.814;37.132;2023-04-24T02:16:21;12.85;;;7.20;;
71395;SDS011;59888;55.814;37.132;2023-04-24T02:19:06;11.02;;;7.00;;
71395;SDS011;59888;55.814;37.132;2023-04-24T02:21:32;11.38;;;6.00;;
71395;SDS011;59888;55.814;37.132;2023-04-24T02:24:02;11.32;;;6.57;;
71395;SDS011;59888;55.814;37.132;2023-04-24T02:26:28;9.88;;;6.53;;
71395;SDS011;59888;55.814;37.132;2023-04-24T02:28:56;15.40;;;5.65;;
71395;SDS011;59888;55.814;37.132;2023-04-24T02:31:22;9.02;;;5.63;;
71395;SDS011;59888;55.814;37.132;2023-04-24T02:33:48;10.63;;;5.35;;
71395;SDS011;59888;55.814;37.132;2023-04-24T02:36:14;11.38;;;5.97;;
71395;SDS011;59888;55.814;37.132;2023-04-24T02:38:41;11.23;;;6.32;;
71395;SDS011;59888;55.814;37.132;2023-04-24T02:41:06;10.52;;;5.57;;
71395;SDS011;59888;55.814;37.132;2023-04-24T02:43:32;10.23;;;6.18;;
71395;SDS011;59888;55.814;37.132;2023-04-24T02:45:59;10.48;;;6.38;;
71395;SDS011;59888;55.814;37.132;2023-04-24T02:48:25;11.20;;;6.63;;
71395;SDS011;59888;55.814;37.132;2023-04-24T02:50:51;14.13;;;6.30;;
71395;SDS011;59888;55.814;37.132;2023-04-24T02:53:17;12.10;;;6.68;;
71395;SDS011;59888;55.814;37.132;2023-04-24T02:55:43;12.02;;;6.32;;
71395;SDS011;59888;55.814;37.132;2023-04-24T02:58:08;15.95;;;6.72;;
71395;SDS011;59888;55.814;37.132;2023-04-24T03:00:36;17.27;;;6.80;;
71395;SDS011;59888;55.814;37.132;2023-04-24T03:03:01;14.93;;;6.85;;
71395;SDS011;59888;55.814;37.132;2023-04-24T03:05:28;10.15;;;6.45;;
71395;SDS011;59888;55.814;37.132;2023-04-24T03:07:53;11.32;;;6.43;;
71395;SDS011;59888;55.814;37.132;2023-04-24T03:10:20;10.70;;;6.55;;
71395;SDS011;59888;55.814;37.132;2023-04-24T03:12:48;11.63;;;6.70;;
71395;SDS011;59888;55.814;37.132;2023-04-24T03:15:14;10.48;;;6.32;;
71395;SDS011;59888;55.814;37.132;2023-04-24T03:17:40;11.70;;;6.65;;
71395;SDS011;59888;55.814;37.132;2023-04-24T03:20:06;13.88;;;7.05;;
71395;SDS011;59888;55.814;37.132;2023-04-24T03:22:36;18.60;;;8.13;;
71395;SDS011;59888;55.814;37.132;2023-04-24T03:25:05;17.15;;;8.18;;
71395;SDS011;59888;55.814;37.132;2023-04-24T03:27:34;14.82;;;7.15;;
71395;SDS011;59888;55.814;37.132;2023-04-24T03:30:05;14.07;;;7.82;;
71395;SDS011;59888;55.814;37.132;2023-04-24T03:33:04;13.80;;;7.57;;
71395;SDS011;59888;55.814;37.132;2023-04-24T03:35:33;14.75;;;7.70;;
71395;SDS011;59888;55.814;37.132;2023-04-24T03:38:02;14.23;;;7.88;;
71395;SDS011;59888;55.814;37.132;2023-04-24T03:40:39;16.67;;;8.60;;
71395;SDS011;59888;55.814;37.132;2023-04-24T03:43:15;18.08;;;8.35;;
71395;SDS011;59888;55.814;37.132;2023-04-24T03:45:41;18.65;;;9.20;;
71395;SDS011;59888;55.814;37.132;2023-04-24T03:48:08;13.43;;;8.60;;
71395;SDS011;59888;55.814;37.132;2023-04-24T03:50:34;17.52;;;8.68;;
71395;SDS011;59888;55.814;37.132;2023-04-24T03:53:00;20.23;;;8.52;;
71395;SDS011;59888;55.814;37.132;2023-04-24T03:55:38;17.13;;;8.25;;
71395;SDS011;59888;55.814;37.132;2023-04-24T03:58:04;15.10;;;8.40;;
71395;SDS011;59888;55.814;37.132;2023-04-24T04:00:31;14.20;;;8.13;;
71395;SDS011;59888;55.814;37.132;2023-04-24T04:03:17;14.73;;;8.25;;
71395;SDS011;59888;55.814;37.132;2023-04-24T04:05:43;14.38;;;8.10;;
71395;SDS011;59888;55.814;37.132;2023-04-24T04:08:09;15.80;;;8.80;;
71395;SDS011;59888;55.814;37.132;2023-04-24T04:10:34;15.45;;;8.30;;
71395;SDS011;59888;55.814;37.132;2023-04-24T04:13:04;19.92;;;9.55;;
71395;SDS011;59888;55.814;37.132;2023-04-24T04:15:31;14.63;;;9.00;;
71395;SDS011;59888;55.814;37.132;2023-04-24T04:17:57;15.70;;;8.68;;
71395;SDS011;59888;55.814;37.132;2023-04-24T04:20:23;12.93;;;8.20;;
71395;SDS011;59888;55.814;37.132;2023-04-24T04:22:50;14.27;;;8.18;;
71395;SDS011;59888;55.814;37.132;2023-04-24T04:25:29;16.67;;;8.45;;
71395;SDS011;59888;55.814;37.132;2023-04-24T04:27:55;14.27;;;8.10;;
71395;SDS011;59888;55.814;37.132;2023-04-24T04:30:21;16.92;;;8.05;;
71395;SDS011;59888;55.814;37.132;2023-04-24T04:32:55;14.10;;;8.32;;
71395;SDS011;59888;55.814;37.132;2023-04-24T04:35:22;15.65;;;8.30;;
71395;SDS011;59888;55.814;37.132;2023-04-24T04:37:51;16.33;;;8.02;;
71395;SDS011;59888;55.814;37.132;2023-04-24T04:40:39;13.88;;;8.50;;
71395;SDS011;59888;55.814;37.132;2023-04-24T04:43:06;16.70;;;8.25;;
71395;SDS011;59888;55.814;37.132;2023-04-24T04:45:39;17.17;;;8.32;;
71395;SDS011;59888;55.814;37.132;2023-04-24T04:48:22;14.68;;;8.27;;
71395;SDS011;59888;55.814;37.132;2023-04-24T04:50:48;16.55;;;8.38;;
71395;SDS011;59888;55.814;37.132;2023-04-24T04:53:15;15.90;;;8.63;;
71395;SDS011;59888;55.814;37.132;2023-04-24T04:55:42;17.55;;;8.23;;
71395;SDS011;59888;55.814;37.132;2023-04-24T04:58:14;14.30;;;8.23;;
71395;SDS011;59888;55.814;37.132;2023-04-24T05:00:40;11.70;;;7.47;;
71395;SDS011;59888;55.814;37.132;2023-04-24T05:03:15;15.77;;;8.35;;
71395;SDS011;59888;55.814;37.132;2023-04-24T05:05:41;14.52;;;8.25;;
71395;SDS011;59888;55.814;37.132;2023-04-24T05:08:10;12.88;;;8.02;;
71395;SDS011;59888;55.814;37.132;2023-04-24T05:10:36;14.05;;;8.07;;
71395;SDS011;59888;55.814;37.132;2023-04-24T05:13:03;14.88;;;7.60;;
71395;SDS011;59888;55.814;37.132;2023-04-24T05:15:31;15.07;;;8.60;;
71395;SDS011;59888;55.814;37.132;2023-04-24T05:17:58;14.60;;;7.80;;
71395;SDS011;59888;55.814;37.132;2023-04-24T05:20:25;15.90;;;8.23;;
71395;SDS011;59888;55.814;37.132;2023-04-24T05:22:51;15.13;;;7.28;;
71395;SDS011;59888;55.814;37.132;2023-04-24T05:25:18;12.52;;;7.45;;
71395;SDS011;59888;55.814;37.132;2023-04-24T05:27:53;12.40;;;7.90;;
71395;SDS011;59888;55.814;37.132;2023-04-24T05:30:19;17.13;;;8.10;;
71395;SDS011;59888;55.814;37.132;2023-04-24T05:32:45;13.98;;;8.23;;
71395;SDS011;59888;55.814;37.132;2023-04-24T05:35:12;12.43;;;7.75;;
71395;SDS011;59888;55.814;37.132;2023-04-24T05:37:38;13.25;;;7.20;;
71395;SDS011;59888;55.814;37.132;2023-04-24T05:40:04;14.40;;;7.60;;
71395;SDS011;59888;55.814;37.132;2023-04-24T05:42:31;13.73;;;7.90;;
71395;SDS011;59888;55.814;37.132;2023-04-24T05:44:57;11.85;;;7.50;;
71395;SDS011;59888;55.814;37.132;2023-04-24T05:47:23;13.93;;;7.45;;
71395;SDS011;59888;55.814;37.132;2023-04-24T05:49:50;14.18;;;7.63;;
71395;SDS011;59888;55.814;37.132;2023-04-24T05:52:16;14.18;;;8.02;;
71395;SDS011;59888;55.814;37.132;2023-04-24T05:54:42;14.68;;;7.63;;
71395;SDS011;59888;55.814;37.132;2023-04-24T05:57:11;18.77;;;7.80;;
71395;SDS011;59888;55.814;37.132;2023-04-24T05:59:51;11.40;;;7.30;;
71395;SDS011;59888;55.814;37.132;2023-04-24T06:02:19;14.02;;;7.05;;
71395;SDS011;59888;55.814;37.132;2023-04-24T06:04:45;11.77;;;7.07;;
71395;SDS011;59888;55.814;37.132;2023-04-24T06:07:11;16.55;;;6.75;;
71395;SDS011;59888;55.814;37.132;2023-04-24T06:09:38;13.27;;;6.70;;
71395;SDS011;59888;55.814;37.132;2023-04-24T06:12:04;9.85;;;5.97;;
71395;SDS011;59888;55.814;37.132;2023-04-24T06:14:44;11.05;;;6.88;;
71395;SDS011;59888;55.814;37.132;2023-04-24T06:17:34;13.93;;;6.47;;
71395;SDS011;59888;55.814;37.132;2023-04-24T06:20:00;11.45;;;6.40;;
71395;SDS011;59888;55.814;37.132;2023-04-24T06:22:26;13.38;;;6.93;;
71395;SDS011;59888;55.814;37.132;2023-04-24T06:24:52;11.45;;;6.43;;
71395;SDS011;59888;55.814;37.132;2023-04-24T06:27:18;8.90;;;5.97;;
71395;SDS011;59888;55.814;37.132;2023-04-24T06:29:43;10.77;;;6.72;;
71395;SDS011;59888;55.814;37.132;2023-04-24T06:32:09;15.70;;;6.68;;
71395;SDS011;59888;55.814;37.132;2023-04-24T06:34:35;11.23;;;6.88;;
71395;SDS011;59888;55.814;37.132;2023-04-24T06:37:02;14.43;;;6.88;;
71395;SDS011;59888;55.814;37.132;2023-04-24T06:39:27;17.95;;;6.57;;
71395;SDS011;59888;55.814;37.132;2023-04-24T06:41:53;11.98;;;6.55;;
71395;SDS011;59888;55.814;37.132;2023-04-24T06:44:19;13.40;;;6.68;;
71395;SDS011;59888;55.814;37.132;2023-04-24T06:46:45;10.90;;;6.60;;
71395;SDS011;59888;55.814;37.132;2023-04-24T06:49:12;12.23;;;7.15;;
71395;SDS011;59888;55.814;37.132;2023-04-24T06:51:41;10.98;;;6.85;;
71395;SDS011;59888;55.814;37.132;2023-04-24T06:54:07;9.57;;;6.65;;
71395;SDS011;59888;55.814;37.132;2023-04-24T06:56:33;14.38;;;7.13;;
71395;SDS011;59888;55.814;37.132;2023-04-24T06:58:59;10.98;;;6.43;;
71395;SDS011;59888;55.814;37.132;2023-04-24T07:01:25;14.35;;;6.72;;
71395;SDS011;59888;55.814;37.132;2023-04-24T07:03:51;11.88;;;6.80;;
71395;SDS011;59888;55.814;37.132;2023-04-24T07:06:18;12.90;;;6.97;;
71395;SDS011;59888;55.814;37.132;2023-04-24T07:08:48;10.57;;;6.63;;
71395;SDS011;59888;55.814;37.132;2023-04-24T07:11:14;11.95;;;6.72;;
71395;SDS011;59888;55.814;37.132;2023-04-24T07:13:40;10.88;;;6.38;;
71395;SDS011;59888;55.814;37.132;2023-04-24T07:16:07;9.73;;;5.80;;
71395;SDS011;59888;55.814;37.132;2023-04-24T07:18:34;13.00;;;6.80;;
71395;SDS011;59888;55.814;37.132;2023-04-24T07:21:01;10.57;;;5.93;;
71395;SDS011;59888;55.814;37.132;2023-04-24T07:23:27;10.77;;;5.75;;
71395;SDS011;59888;55.814;37.132;2023-04-24T07:25:54;8.02;;;5.68;;
71395;SDS011;59888;55.814;37.132;2023-04-24T07:28:20;9.63;;;5.65;;
71395;SDS011;59888;55.814;37.132;2023-04-24T07:30:46;8.50;;;5.70;;
71395;SDS011;59888;55.814;37.132;2023-04-24T07:33:12;10.18;;;6.28;;
71395;SDS011;59888;55.814;37.132;2023-04-24T07:35:38;12.75;;;6.25;;
71395;SDS011;59888;55.814;37.132;2023-04-24T07:38:04;7.93;;;5.32;;
71395;SDS011;59888;55.814;37.132;2023-04-24T07:40:31;13.40;;;5.63;;
71395;SDS011;59888;55.814;37.132;2023-04-24T07:42:57;8.68;;;4.85;;
71395;SDS011;59888;55.814;37.132;2023-04-24T07:45:23;6.50;;;3.95;;
71395;SDS011;59888;55.814;37.132;2023-04-24T07:47:51;6.05;;;4.60;;
71395;SDS011;59888;55.814;37.132;2023-04-24T07:50:17;9.13;;;5.40;;
71395;SDS011;59888;55.814;37.132;2023-04-24T07:52:43;9.45;;;4.60;;
71395;SDS011;59888;55.814;37.132;2023-04-24T07:55:09;5.63;;;3.92;;
71395;SDS011;59888;55.814;37.132;2023-04-24T07:57:34;5.05;;;3.67;;
71395;SDS011;59888;55.814;37.132;2023-04-24T08:00:03;7.55;;;4.13;;
71395;SDS011;59888;55.814;37.132;2023-04-24T08:02:37;5.95;;;4.10;;
71395;SDS011;59888;55.814;37.132;2023-04-24T08:05:03;7.10;;;3.50;;
71395;SDS011;59888;55.814;37.132;2023-04-24T08:07:29;6.90;;;3.30;;
71395;SDS011;59888;55.814;37.132;2023-04-24T08:09:55;5.72;;;3.25;;
71395;SDS011;59888;55.814;37.132;2023-04-24T08:12:21;8.45;;;3.80;;
71395;SDS011;59888;55.814;37.132;2023-04-24T08:14:47;7.72;;;3.72;;
71395;SDS011;59888;55.814;37.132;2023-04-24T08:17:13;8.13;;;4.00;;
71395;SDS011;59888;55.814;37.132;2023-04-24T08:19:40;6.85;;;3.60;;
71395;SDS011;59888;55.814;37.132;2023-04-24T08:22:14;7.70;;;3.88;;
71395;SDS011;59888;55.814;37.132;2023-04-24T08:24:40;5.85;;;3.38;;
71395;SDS011;59888;55.814;37.132;2023-04-24T08:27:06;7.50;;;3.53;;
71395;SDS011;59888;55.814;37.132;2023-04-24T08:29:32;6.18;;;3.22;;
71395;SDS011;59888;55.814;37.132;2023-04-24T08:31:58;6.28;;;3.25;;
71395;SDS011;59888;55.814;37.132;2023-04-24T08:34:24;7.65;;;3.55;;
71395;SDS011;59888;55.814;37.132;2023-04-24T08:36:50;6.47;;;3.60;;
71395;SDS011;59888;55.814;37.132;2023-04-24T08:39:16;6.50;;;3.42;;
71395;SDS011;59888;55.814;37.132;2023-04-24T08:41:43;9.27;;;3.97;;
71395;SDS011;59888;55.814;37.132;2023-04-24T08:44:10;4.32;;;3.08;;
71395;SDS011;59888;55.814;37.132;2023-04-24T08:46:38;8.80;;;3.20;;
71395;SDS011;59888;55.814;37.132;2023-04-24T08:49:06;6.45;;;3.33;;
71395;SDS011;59888;55.814;37.132;2023-04-24T08:51:31;6.60;;;3.33;;
71395;SDS011;59888;55.814;37.132;2023-04-24T08:53:58;4.70;;;3.10;;
71395;SDS011;59888;55.814;37.132;2023-04-24T08:56:24;8.27;;;3.30;;
71395;SDS011;59888;55.814;37.132;2023-04-24T08:58:50;6.15;;;3.20;;
71395;SDS011;59888;55.814;37.132;2023-04-24T09:01:19;5.18;;;3.30;;
71395;SDS011;59888;55.814;37.132;2023-04-24T09:03:46;7.28;;;3.47;;
71395;SDS011;59888;55.814;37.132;2023-04-24T09:06:13;6.57;;;3.63;;
71395;SDS011;59888;55.814;37.132;2023-04-24T09:08:41;7.18;;;3.20;;
71395;SDS011;59888;55.814;37.132;2023-04-24T09:11:09;5.72;;;3.20;;
71395;SDS011;59888;55.814;37.132;2023-04-24T09:13:36;5.30;;;3.22;;
71395;SDS011;59888;55.814;37.132;2023-04-24T09:16:03;8.15;;;3.63;;
71395;SDS011;59888;55.814;37.132;2023-04-24T09:18:29;6.25;;;3.15;;
71395;SDS011;59888;55.814;37.132;2023-04-24T09:20:59;5.88;;;3.20;;
71395;SDS011;59888;55.814;37.132;2023-04-24T09:23:29;9.77;;;3.25;;
71395;SDS011;59888;55.814;37.132;2023-04-24T09:25:56;7.43;;;3.33;;
71395;SDS011;59888;55.814;37.132;2023-04-24T09:28:34;6.18;;;3.17;;
71395;SDS011;59888;55.814;37.132;2023-04-24T09:33:32;6.07;;;3.10;;
71395;SDS011;59888;55.814;37.132;2023-04-24T09:35:58;6.75;;;3.42;;
71395;SDS011;59888;55.814;37.132;2023-04-24T09:38:34;5.38;;;3.47;;
71395;SDS011;59888;55.814;37.132;2023-04-24T09:41:05;6.32;;;3.50;;
71395;SDS011;59888;55.814;37.132;2023-04-24T09:43:32;7.57;;;4.00;;
71395;SDS011;59888;55.814;37.132;2023-04-24T09:46:00;6.00;;;3.28;;
71395;SDS011;59888;55.814;37.132;2023-04-24T09:48:34;5.10;;;3.40;;
71395;SDS011;59888;55.814;37.132;2023-04-24T09:51:02;5.75;;;3.42;;
71395;SDS011;59888;55.814;37.132;2023-04-24T09:53:32;6.25;;;3.40;;
71395;SDS011;59888;55.814;37.132;2023-04-24T09:56:02;8.20;;;3.50;;
71395;SDS011;59888;55.814;37.132;2023-04-24T09:58:35;6.03;;;3.40;;
71395;SDS011;59888;55.814;37.132;2023-04-24T10:01:01;5.32;;;3.22;;
71395;SDS011;59888;55.814;37.132;2023-04-24T10:03:31;9.38;;;3.60;;
71395;SDS011;59888;55.814;37.132;2023-04-24T10:05:59;6.03;;;3.70;;
71395;SDS011;59888;55.814;37.132;2023-04-24T10:08:26;7.32;;;3.70;;
71395;SDS011;59888;55.814;37.132;2023-04-24T10:10:58;5.30;;;3.20;;
71395;SDS011;59888;55.814;37.132;2023-04-24T10:13:25;6.18;;;3.00;;
71395;SDS011;59888;55.814;37.132;2023-04-24T10:15:51;12.02;;;4.10;;
71395;SDS011;59888;55.814;37.132;2023-04-24T10:18:17;6.90;;;4.03;;
71395;SDS011;59888;55.814;37.132;2023-04-24T10:20:46;5.65;;;3.58;;
71395;SDS011;59888;55.814;37.132;2023-04-24T10:23:12;5.65;;;3.42;;
71395;SDS011;59888;55.814;37.132;2023-04-24T10:25:38;6.60;;;3.83;;
71395;SDS011;59888;55.814;37.132;2023-04-24T10:28:05;6.43;;;3.50;;
71395;SDS011;59888;55.814;37.132;2023-04-24T10:30:34;6.75;;;3.72;;
71395;SDS011;59888;55.814;37.132;2023-04-24T10:33:04;7.97;;;3.65;;
71395;SDS011;59888;55.814;37.132;2023-04-24T10:35:32;6.82;;;3.38;;
71395;SDS011;59888;55.814;37.132;2023-04-24T10:38:05;8.60;;;4.00;;
71395;SDS011;59888;55.814;37.132;2023-04-24T10:40:42;7.35;;;3.60;;
71395;SDS011;59888;55.814;37.132;2023-04-24T10:43:09;6.28;;;3.67;;
71395;SDS011;59888;55.814;37.132;2023-04-24T10:45:37;5.95;;;4.05;;
71395;SDS011;59888;55.814;37.132;2023-04-24T10:50:46;6.07;;;3.50;;
71395;SDS011;59888;55.814;37.132;2023-04-24T10:53:17;7.88;;;3.45;;
71395;SDS011;59888;55.814;37.132;2023-04-24T10:55:46;6.22;;;3.45;;
71395;SDS011;59888;55.814;37.132;2023-04-24T10:58:16;5.47;;;3.88;;
71395;SDS011;59888;55.814;37.132;2023-04-24T11:00:58;6.72;;;3.95;;
71395;SDS011;59888;55.814;37.132;2023-04-24T11:05:59;6.05;;;3.50;;
71395;SDS011;59888;55.814;37.132;2023-04-24T11:08:30;5.43;;;3.70;;
71395;SDS011;59888;55.814;37.132;2023-04-24T11:11:12;8.80;;;3.95;;
71395;SDS011;59888;55.814;37.132;2023-04-24T11:22:01;6.45;;;3.47;;
71395;SDS011;59888;55.814;37.132;2023-04-24T11:27:19;8.38;;;3.63;;
71395;SDS011;59888;55.814;37.132;2023-04-24T11:29:47;7.75;;;3.55;;
71395;SDS011;59888;55.814;37.132;2023-04-24T11:32:23;6.70;;;3.95;;
71395;SDS011;59888;55.814;37.132;2023-04-24T11:34:58;5.85;;;3.38;;
71395;SDS011;59888;55.814;37.132;2023-04-24T11:37:42;4.85;;;3.20;;
71395;SDS011;59888;55.814;37.132;2023-04-24T11:40:12;7.32;;;3.45;;
71395;SDS011;59888;55.814;37.132;2023-04-24T11:42:42;5.53;;;3.58;;
71395;SDS011;59888;55.814;37.132;2023-04-24T11:45:16;5.15;;;3.17;;
71395;SDS011;59888;55.814;37.132;2023-04-24T11:47:52;7.65;;;3.60;;
71395;SDS011;59888;55.814;37.132;2023-04-24T11:50:21;5.20;;;3.60;;
71395;SDS011;59888;55.814;37.132;2023-04-24T11:52:48;6.50;;;3.95;;
71395;SDS011;59888;55.814;37.132;2023-04-24T11:57:45;4.45;;;3.33;;
71395;SDS011;59888;55.814;37.132;2023-04-24T12:00:22;6.50;;;3.50;;
71395;SDS011;59888;55.814;37.132;2023-04-24T12:03:03;5.13;;;3.40;;
71395;SDS011;59888;55.814;37.132;2023-04-24T12:05:33;5.40;;;3.22;;
71395;SDS011;59888;55.814;37.132;2023-04-24T12:08:00;5.25;;;3.22;;
71395;SDS011;59888;55.814;37.132;2023-04-24T12:10:27;9.50;;;3.33;;
71395;SDS011;59888;55.814;37.132;2023-04-24T12:12:55;5.70;;;3.30;;
71395;SDS011;59888;55.814;37.132;2023-04-24T12:15:22;7.75;;;3.30;;
71395;SDS011;59888;55.814;37.132;2023-04-24T12:17:52;6.22;;;2.85;;
71395;SDS011;59888;55.814;37.132;2023-04-24T12:20:23;10.15;;;3.28;;
71395;SDS011;59888;55.814;37.132;2023-04-24T12:25:20;5.00;;;2.83;;
71395;SDS011;59888;55.814;37.132;2023-04-24T12:27:52;5.25;;;2.65;;
71395;SDS011;59888;55.814;37.132;2023-04-24T12:30:19;5.32;;;3.10;;
71395;SDS011;59888;55.814;37.132;2023-04-24T12:32:48;7.28;;;3.28;;
71395;SDS011;59888;55.814;37.132;2023-04-24T12:35:22;6.07;;;3.08;;
71395;SDS011;59888;55.814;37.132;2023-04-24T12:37:49;7.38;;;3.00;;
71395;SDS011;59888;55.814;37.132;2023-04-24T12:40:16;4.55;;;3.00;;
71395;SDS011;59888;55.814;37.132;2023-04-24T12:42:46;5.68;;;3.20;;
71395;SDS011;59888;55.814;37.132;2023-04-24T12:45:16;4.75;;;2.70;;
71395;SDS011;59888;55.814;37.132;2023-04-24T12:47:43;6.47;;;3.15;;
71395;SDS011;59888;55.814;37.132;2023-04-24T12:50:12;15.13;;;3.45;;
71395;SDS011;59888;55.814;37.132;2023-04-24T12:52:39;8.32;;;3.03;;
71395;SDS011;59888;55.814;37.132;2023-04-24T12:55:05;3.65;;;2.42;;
71395;SDS011;59888;55.814;37.132;2023-04-24T12:57:33;6.07;;;3.42;;
71395;SDS011;59888;55.814;37.132;2023-04-24T13:00:01;6.85;;;2.83;;
71395;SDS011;59888;55.814;37.132;2023-04-24T13:02:33;7.57;;;2.70;;
71395;SDS011;59888;55.814;37.132;2023-04-24T13:05:00;9.05;;;3.10;;
71395;SDS011;59888;55.814;37.132;2023-04-24T13:07:32;6.20;;;2.70;;
71395;SDS011;59888;55.814;37.132;2023-04-24T13:09:59;8.98;;;2.83;;
71395;SDS011;59888;55.814;37.132;2023-04-24T13:12:25;4.93;;;2.60;;
71395;SDS011;59888;55.814;37.132;2023-04-24T13:14:52;6.53;;;2.75;;
71395;SDS011;59888;55.814;37.132;2023-04-24T13:17:19;6.97;;;2.70;;
71395;SDS011;59888;55.814;37.132;2023-04-24T13:19:45;5.82;;;2.90;;
71395;SDS011;59888;55.814;37.132;2023-04-24T13:22:11;3.97;;;2.75;;
71395;SDS011;59888;55.814;37.132;2023-04-24T13:24:38;4.93;;;3.10;;
71395;SDS011;59888;55.814;37.132;2023-04-24T13:27:08;6.88;;;3.22;;
71395;SDS011;59888;55.814;37.132;2023-04-24T13:29:35;5.80;;;3.05;;
71395;SDS011;59888;55.814;37.132;2023-04-24T13:32:01;5.20;;;2.90;;
71395;SDS011;59888;55.814;37.132;2023-04-24T13:34:27;4.53;;;2.70;;
71395;SDS011;59888;55.814;37.132;2023-04-24T13:36:54;4.25;;;3.20;;
71395;SDS011;59888;55.814;37.132;2023-04-24T13:39:22;6.72;;;2.72;;
71395;SDS011;59888;55.814;37.132;2023-04-24T13:41:49;3.67;;;2.53;;
71395;SDS011;59888;55.814;37.132;2023-04-24T13:44:15;5.22;;;2.60;;
71395;SDS011;59888;55.814;37.132;2023-04-24T13:46:42;5.60;;;2.80;;
71395;SDS011;59888;55.814;37.132;2023-04-24T13:49:11;4.10;;;2.88;;
71395;SDS011;59888;55.814;37.132;2023-04-24T13:51:39;4.78;;;3.00;;
71395;SDS011;59888;55.814;37.132;2023-04-24T13:54:06;6.13;;;2.92;;
71395;SDS011;59888;55.814;37.132;2023-04-24T13:56:32;6.10;;;3.10;;
71395;SDS011;59888;55.814;37.132;2023-04-24T13:58:58;4.63;;;2.97;;
71395;SDS011;59888;55.814;37.132;2023-04-24T14:01:24;5.18;;;3.10;;
71395;SDS011;59888;55.814;37.132;2023-04-24T14:03:51;4.93;;;3.10;;
71395;SDS011;59888;55.814;37.132;2023-04-24T14:06:18;7.15;;;3.00;;
71395;SDS011;59888;55.814;37.132;2023-04-24T14:08:45;5.93;;;3.20;;
71395;SDS011;59888;55.814;37.132;2023-04-24T14:11:12;3.78;;;2.90;;
71395;SDS011;59888;55.814;37.132;2023-04-24T14:13:39;5.00;;;3.28;;
71395;SDS011;59888;55.814;37.132;2023-04-24T14:16:06;5.50;;;3.15;;
71395;SDS011;59888;55.814;37.132;2023-04-24T14:18:32;6.28;;;3.80;;
71395;SDS011;59888;55.814;37.132;2023-04-24T14:20:58;7.00;;;3.78;;
71395;SDS011;59888;55.814;37.132;2023-04-24T14:23:24;5.82;;;3.53;;
71395;SDS011;59888;55.814;37.132;2023-04-24T14:25:50;7.00;;;3.92;;
71395;SDS011;59888;55.814;37.132;2023-04-24T14:28:18;6.78;;;3.47;;
71395;SDS011;59888;55.814;37.132;2023-04-24T14:30:45;6.72;;;3.88;;
71395;SDS011;59888;55.814;37.132;2023-04-24T14:33:12;7.28;;;3.97;;
71395;SDS011;59888;55.814;37.132;2023-04-24T14:35:39;9.32;;;4.25;;
71395;SDS011;59888;55.814;37.132;2023-04-24T14:38:07;7.32;;;3.58;;
71395;SDS011;59888;55.814;37.132;2023-04-24T14:40:34;7.15;;;3.80;;
71395;SDS011;59888;55.814;37.132;2023-04-24T14:43:00;8.15;;;3.72;;
71395;SDS011;59888;55.814;37.132;2023-04-24T14:45:26;5.57;;;3.50;;
71395;SDS011;59888;55.814;37.132;2023-04-24T14:47:52;6.28;;;3.63;;
71395;SDS011;59888;55.814;37.132;2023-04-24T14:50:19;5.70;;;3.80;;
71395;SDS011;59888;55.814;37.132;2023-04-24T14:52:46;6.80;;;3.47;;
71395;SDS011;59888;55.814;37.132;2023-04-24T14:55:12;8.48;;;3.30;;
71395;SDS011;59888;55.814;37.132;2023-04-24T14:57:38;4.53;;;3.28;;